Time;durP1;ratioP1;P1;durP2;ratioP2;P2;SDS_P1;SDS_P2;PMS_P1;PMS_P2;Temp;Humidity;BMP_temperature;BMP_pressure;BME280_temperature;BME280_humidity;BME280_pressure;Samples;Min_cycle;Max_cycle;Signal;HPM_P1;HPM_P2
2021/12/22 00:00:50;;;;;;;6.50;2.65;;;;;;;;;;7390016;19;20477;-75
2021/12/22 00:03:17;;;;;;;5.03;2.10;;;;;;;;;;7389534;19;19998;-75
2021/12/22 00:05:45;;;;;;;4.10;2.00;;;;;;;;;;7389188;19;20007;-75
2021/12/22 00:08:13;;;;;;;9.52;2.60;;;;;;;;;;7389609;19;20009;-75
2021/12/22 00:10:40;;;;;;;4.90;1.85;;;;;;;;;;7389606;19;20009;-75
2021/12/22 00:13:06;;;;;;;3.80;1.95;;;;;;;;;;7388001;19;20002;-75
2021/12/22 00:15:31;;;;;;;3.95;1.90;;;;;;;;;;7388536;19;20020;-75
2021/12/22 00:17:56;;;;;;;7.03;2.30;;;;;;;;;;7389481;19;20453;-75
2021/12/22 00:20:21;;;;;;;5.75;2.40;;;;;;;;;;7389245;19;20459;-75
2021/12/22 00:22:47;;;;;;;5.05;1.95;;;;;;;;;;7387594;19;20002;-75
2021/12/22 00:25:12;;;;;;;5.07;2.15;;;;;;;;;;7388283;19;20009;-75
2021/12/22 00:27:38;;;;;;;4.63;1.80;;;;;;;;;;7388983;19;20001;-75
2021/12/22 00:30:04;;;;;;;5.85;2.40;;;;;;;;;;7389311;19;20013;-75
2021/12/22 00:32:31;;;;;;;7.40;1.90;;;;;;;;;;7388218;19;20020;-75
2021/12/22 00:34:57;;;;;;;9.10;2.08;;;;;;;;;;7388491;19;20419;-75
2021/12/22 00:37:25;;;;;;;6.95;2.15;;;;;;;;;;7389725;19;19990;-75
2021/12/22 00:39:51;;;;;;;4.43;1.83;;;;;;;;;;7388374;19;20471;-75
2021/12/22 00:42:18;;;;;;;4.22;1.90;;;;;;;;;;7392078;19;20024;-75
2021/12/22 00:44:47;;;;;;;6.55;2.22;;;;;;;;;;7392741;19;20017;-75
2021/12/22 00:47:12;;;;;;;3.80;1.95;;;;;;;;;;7389139;19;19999;-75
2021/12/22 00:49:37;;;;;;;5.32;2.15;;;;;;;;;;7388490;19;20470;-75
2021/12/22 00:52:03;;;;;;;5.47;2.20;;;;;;;;;;7388020;19;20409;-75
2021/12/22 00:54:28;;;;;;;5.13;2.10;;;;;;;;;;7388306;19;19999;-75
2021/12/22 00:57:00;;;;;;;5.03;1.90;;;;;;;;;;7388614;19;20026;-75
2021/12/22 00:59:26;;;;;;;5.18;2.10;;;;;;;;;;7388416;19;19999;-75
2021/12/22 01:01:51;;;;;;;3.70;1.85;;;;;;;;;;7388236;19;20462;-75
2021/12/22 01:04:18;;;;;;;5.22;1.98;;;;;;;;;;7388004;19;19991;-75
2021/12/22 01:06:44;;;;;;;5.38;2.22;;;;;;;;;;7388466;19;20002;-75
2021/12/22 01:09:09;;;;;;;5.22;1.80;;;;;;;;;;7388782;19;19991;-75
2021/12/22 01:11:34;;;;;;;3.95;1.60;;;;;;;;;;7387959;19;19995;-75
2021/12/22 01:13:59;;;;;;;3.70;1.80;;;;;;;;;;7388190;19;20403;-75
2021/12/22 01:16:25;;;;;;;7.47;2.10;;;;;;;;;;7385664;19;19998;-75
2021/12/22 01:18:51;;;;;;;4.32;1.80;;;;;;;;;;7387726;19;19995;-75
2021/12/22 01:21:23;;;;;;;5.32;2.15;;;;;;;;;;7388239;19;20004;-75
2021/12/22 01:24:10;;;;;;;5.97;2.05;;;;;;;;;;7391786;19;20017;-75
2021/12/22 01:26:40;;;;;;;5.53;2.10;;;;;;;;;;7395222;19;19999;-75
2021/12/22 01:29:05;;;;;;;6.65;2.30;;;;;;;;;;7394716;19;20434;-75
2021/12/22 01:31:30;;;;;;;5.00;2.38;;;;;;;;;;7394354;19;19999;-75
2021/12/22 01:33:56;;;;;;;5.63;2.15;;;;;;;;;;7397516;19;20458;-75
2021/12/22 01:36:21;;;;;;;7.45;2.47;;;;;;;;;;7392185;19;19999;-75
2021/12/22 01:38:48;;;;;;;3.47;1.90;;;;;;;;;;7394336;19;20002;-75
2021/12/22 01:41:13;;;;;;;5.55;1.98;;;;;;;;;;7395214;19;20002;-75
2021/12/22 01:43:39;;;;;;;5.40;2.38;;;;;;;;;;7394465;19;20009;-75
2021/12/22 01:46:21;;;;;;;4.93;2.38;;;;;;;;;;7392577;19;19998;-75
2021/12/22 01:51:40;;;;;;;4.60;1.95;;;;;;;;;;7394272;19;20005;-75
2021/12/22 01:54:21;;;;;;;4.65;2.00;;;;;;;;;;7395202;19;20338;-75
2021/12/22 01:56:50;;;;;;;5.95;2.10;;;;;;;;;;7394108;19;20003;-75
2021/12/22 01:59:17;;;;;;;3.80;1.75;;;;;;;;;;7393748;19;19998;-75
2021/12/22 02:01:43;;;;;;;4.22;2.15;;;;;;;;;;7393992;19;19999;-75
2021/12/22 02:04:11;;;;;;;7.18;2.00;;;;;;;;;;7393364;19;20010;-75
2021/12/22 02:06:46;;;;;;;5.45;2.25;;;;;;;;;;7394617;19;20074;-75
2021/12/22 02:09:18;;;;;;;6.28;2.10;;;;;;;;;;7393036;19;20110;-75
2021/12/22 02:11:43;;;;;;;4.22;2.08;;;;;;;;;;7392945;19;20019;-75
2021/12/22 02:14:09;;;;;;;5.90;2.00;;;;;;;;;;7393384;19;19991;-75
2021/12/22 02:16:38;;;;;;;5.13;1.77;;;;;;;;;;7393426;19;19990;-75
2021/12/22 02:19:06;;;;;;;7.32;2.03;;;;;;;;;;7393278;19;20011;-75
2021/12/22 02:21:37;;;;;;;4.85;1.90;;;;;;;;;;7393514;19;20487;-75
2021/12/22 02:24:03;;;;;;;5.97;2.05;;;;;;;;;;7395961;19;20002;-75
2021/12/22 02:26:36;;;;;;;5.63;2.08;;;;;;;;;;7390623;19;20002;-75
2021/12/22 02:29:17;;;;;;;5.15;2.15;;;;;;;;;;7392799;19;19999;-75
2021/12/22 02:31:46;;;;;;;5.13;2.25;;;;;;;;;;7392980;19;20085;-74
2021/12/22 02:34:15;;;;;;;9.50;2.55;;;;;;;;;;7390892;19;20015;-75
2021/12/22 02:36:42;;;;;;;6.40;1.73;;;;;;;;;;7392036;19;20113;-75
2021/12/22 02:39:08;;;;;;;6.80;2.00;;;;;;;;;;7392377;19;19998;-75
2021/12/22 02:41:36;;;;;;;4.70;1.80;;;;;;;;;;7393163;19;20335;-75
2021/12/22 02:44:02;;;;;;;3.92;1.60;;;;;;;;;;7392308;19;20003;-75
2021/12/22 02:46:33;;;;;;;8.35;2.38;;;;;;;;;;7390475;19;20399;-75
2021/12/22 02:49:05;;;;;;;6.20;2.20;;;;;;;;;;7391967;19;20030;-75
2021/12/22 02:51:30;;;;;;;5.18;2.20;;;;;;;;;;7392108;19;20023;-75
2021/12/22 02:54:21;;;;;;;5.97;2.20;;;;;;;;;;7392282;19;19998;-75
2021/12/22 03:04:14;;;;;;;6.75;2.70;;;;;;;;;;7392002;19;20026;-75
2021/12/22 03:06:47;;;;;;;4.20;2.05;;;;;;;;;;7392187;19;20006;-75
2021/12/22 03:09:19;;;;;;;6.35;2.50;;;;;;;;;;7391530;19;20693;-75
2021/12/22 03:11:45;;;;;;;7.22;2.50;;;;;;;;;;7395173;19;20022;-75
2021/12/22 03:14:12;;;;;;;6.05;2.30;;;;;;;;;;7394768;19;19999;-75
2021/12/22 03:16:38;;;;;;;6.47;2.00;;;;;;;;;;7392599;19;20024;-75
2021/12/22 03:19:03;;;;;;;5.72;2.28;;;;;;;;;;7391254;19;19999;-75
2021/12/22 03:21:29;;;;;;;8.35;2.17;;;;;;;;;;7391680;19;20537;-75
2021/12/22 03:23:56;;;;;;;7.75;2.65;;;;;;;;;;7391106;19;19994;-75
2021/12/22 03:26:23;;;;;;;5.97;2.55;;;;;;;;;;7389608;19;20365;-75
2021/12/22 03:28:49;;;;;;;4.32;2.05;;;;;;;;;;7390861;19;19995;-75
2021/12/22 03:31:15;;;;;;;5.40;2.22;;;;;;;;;;7391651;19;20031;-75
2021/12/22 03:33:42;;;;;;;5.22;2.47;;;;;;;;;;7391044;19;19999;-75
2021/12/22 03:36:08;;;;;;;4.55;2.30;;;;;;;;;;7389918;19;20086;-75
2021/12/22 03:38:35;;;;;;;5.53;2.38;;;;;;;;;;7390802;19;20058;-75
2021/12/22 03:41:00;;;;;;;5.03;2.10;;;;;;;;;;7390924;19;20007;-75
2021/12/22 03:43:26;;;;;;;5.57;2.10;;;;;;;;;;7390501;19;20009;-75
2021/12/22 03:45:51;;;;;;;5.05;2.30;;;;;;;;;;7388380;19;20433;-75
2021/12/22 03:48:18;;;;;;;8.48;2.30;;;;;;;;;;7390173;19;19998;-75
2021/12/22 03:50:44;;;;;;;5.70;2.22;;;;;;;;;;7395520;19;20307;-75
2021/12/22 03:53:10;;;;;;;4.30;1.85;;;;;;;;;;7390146;19;20385;-75
2021/12/22 03:55:35;;;;;;;6.88;2.03;;;;;;;;;;7389333;19;19998;-75
2021/12/22 03:58:01;;;;;;;6.75;1.95;;;;;;;;;;7389981;19;20379;-75
2021/12/22 04:00:26;;;;;;;4.68;2.15;;;;;;;;;;7392133;19;20010;-75
2021/12/22 04:02:52;;;;;;;4.38;2.00;;;;;;;;;;7391326;19;19995;-75
2021/12/22 04:05:18;;;;;;;5.40;2.17;;;;;;;;;;7389356;19;20006;-74
2021/12/22 04:07:44;;;;;;;4.57;2.17;;;;;;;;;;7390674;19;19999;-75
2021/12/22 04:10:20;;;;;;;5.90;2.33;;;;;;;;;;7389627;19;20012;-75
2021/12/22 04:12:51;;;;;;;4.80;2.50;;;;;;;;;;7388563;19;20018;-75
2021/12/22 04:15:17;;;;;;;3.75;2.00;;;;;;;;;;7388968;19;20016;-75
2021/12/22 04:17:43;;;;;;;6.60;2.50;;;;;;;;;;7390023;19;19999;-75
2021/12/22 04:20:09;;;;;;;6.28;2.47;;;;;;;;;;7389362;19;20033;-75
2021/12/22 04:22:34;;;;;;;5.90;2.38;;;;;;;;;;7389857;19;19999;-75
2021/12/22 04:25:00;;;;;;;6.32;2.13;;;;;;;;;;7388790;19;20005;-75
2021/12/22 04:27:25;;;;;;;4.75;1.92;;;;;;;;;;7389400;19;20306;-75
2021/12/22 04:29:50;;;;;;;6.72;2.15;;;;;;;;;;7389426;19;20003;-75
2021/12/22 04:32:16;;;;;;;4.97;1.85;;;;;;;;;;7388367;19;19999;-75
2021/12/22 04:34:41;;;;;;;4.13;1.77;;;;;;;;;;7387170;19;20007;-75
2021/12/22 04:37:06;;;;;;;5.43;2.50;;;;;;;;;;7389287;19;20002;-75
2021/12/22 04:39:33;;;;;;;4.65;2.25;;;;;;;;;;7388613;19;19999;-75
2021/12/22 04:42:00;;;;;;;4.82;2.08;;;;;;;;;;7389359;19;20002;-75
2021/12/22 04:44:25;;;;;;;3.97;1.80;;;;;;;;;;7388372;19;20018;-75
2021/12/22 04:46:51;;;;;;;4.30;1.90;;;;;;;;;;7389104;19;20019;-75
2021/12/22 04:49:16;;;;;;;6.32;2.33;;;;;;;;;;7388872;19;20022;-75
2021/12/22 04:51:48;;;;;;;4.97;2.10;;;;;;;;;;7392805;19;19999;-75
2021/12/22 04:54:19;;;;;;;10.40;2.58;;;;;;;;;;7388506;19;19999;-75
2021/12/22 04:56:45;;;;;;;15.50;3.33;;;;;;;;;;7388685;19;19998;-75
2021/12/22 04:59:11;;;;;;;7.63;2.85;;;;;;;;;;7393451;19;20006;-75
2021/12/22 05:01:36;;;;;;;6.47;2.40;;;;;;;;;;7395959;19;20002;-75
2021/12/22 05:04:02;;;;;;;4.25;2.20;;;;;;;;;;7396102;19;20033;-75
2021/12/22 05:06:27;;;;;;;7.05;2.35;;;;;;;;;;7393404;19;19995;-75
2021/12/22 05:08:53;;;;;;;5.47;2.28;;;;;;;;;;7395356;19;19990;-75
2021/12/22 05:11:18;;;;;;;5.97;2.40;;;;;;;;;;7395723;19;20016;-75
2021/12/22 05:13:44;;;;;;;6.60;2.38;;;;;;;;;;7395460;19;20371;-75
2021/12/22 05:16:16;;;;;;;7.05;2.70;;;;;;;;;;7392122;19;20006;-75
2021/12/22 05:19:10;;;;;;;7.07;2.60;;;;;;;;;;7395085;19;20001;-75
2021/12/22 05:21:29;;;;;;;7.85;2.17;;;;;;;;;;7395035;19;19998;-75
2021/12/22 05:23:57;;;;;;;6.80;2.50;;;;;;;;;;7392787;19;20018;-75
2021/12/22 05:26:23;;;;;;;6.78;2.38;;;;;;;;;;7392545;19;20062;-75
2021/12/22 05:28:48;;;;;;;6.30;2.50;;;;;;;;;;7394823;19;20486;-75
2021/12/22 05:31:14;;;;;;;5.25;2.40;;;;;;;;;;7394936;19;20003;-75
2021/12/22 05:33:39;;;;;;;7.53;2.53;;;;;;;;;;7392446;19;19995;-75
2021/12/22 05:36:05;;;;;;;4.93;2.25;;;;;;;;;;7392935;19;20100;-75
2021/12/22 05:38:31;;;;;;;8.70;2.25;;;;;;;;;;7395142;19;19998;-77
2021/12/22 05:40:56;;;;;;;10.15;2.70;;;;;;;;;;7394952;19;20323;-75
2021/12/22 05:43:21;;;;;;;7.93;2.85;;;;;;;;;;7397983;19;20458;-75
2021/12/22 05:45:47;;;;;;;9.48;2.75;;;;;;;;;;7392657;19;20027;-75
2021/12/22 05:48:12;;;;;;;7.43;2.65;;;;;;;;;;7394046;19;20084;-75
2021/12/22 05:50:37;;;;;;;10.20;2.13;;;;;;;;;;7394254;19;20449;-75
2021/12/22 05:53:03;;;;;;;6.68;2.30;;;;;;;;;;7395634;19;20458;-75
2021/12/22 05:55:29;;;;;;;6.10;2.58;;;;;;;;;;7392763;19;20003;-75
2021/12/22 05:57:54;;;;;;;6.75;2.35;;;;;;;;;;7394255;19;20465;-75
2021/12/22 06:00:22;;;;;;;8.48;3.08;;;;;;;;;;7393683;19;20002;-75
2021/12/22 06:02:47;;;;;;;10.80;2.75;;;;;;;;;;7394110;19;20002;-75
2021/12/22 06:05:12;;;;;;;6.68;2.63;;;;;;;;;;7392958;19;19998;-75
2021/12/22 06:07:38;;;;;;;8.90;2.58;;;;;;;;;;7394028;19;20310;-75
2021/12/22 06:10:05;;;;;;;7.55;2.80;;;;;;;;;;7392563;19;20493;-75
2021/12/22 06:12:30;;;;;;;8.55;2.92;;;;;;;;;;7392810;19;20003;-75
2021/12/22 06:14:56;;;;;;;7.35;3.13;;;;;;;;;;7392542;19;20359;-75
2021/12/22 06:17:21;;;;;;;4.80;2.30;;;;;;;;;;7393470;19;20021;-75
2021/12/22 06:19:46;;;;;;;4.90;2.42;;;;;;;;;;7393153;19;19991;-75
2021/12/22 06:22:12;;;;;;;7.95;2.85;;;;;;;;;;7393722;19;19999;-75
2021/12/22 06:24:37;;;;;;;6.45;3.00;;;;;;;;;;7392166;19;20533;-75
2021/12/22 06:27:03;;;;;;;7.68;2.92;;;;;;;;;;7392009;19;20024;-75
2021/12/22 06:29:28;;;;;;;6.53;2.90;;;;;;;;;;7392639;19;20416;-75
2021/12/22 06:31:53;;;;;;;8.18;2.78;;;;;;;;;;7395117;19;20058;-75
2021/12/22 06:34:19;;;;;;;6.40;2.47;;;;;;;;;;7392387;19;20023;-75
2021/12/22 06:36:44;;;;;;;6.35;2.50;;;;;;;;;;7393161;19;20454;-75
2021/12/22 06:39:09;;;;;;;7.45;2.83;;;;;;;;;;7392369;19;20452;-75
2021/12/22 06:41:35;;;;;;;5.70;2.47;;;;;;;;;;7392383;19;20462;-75
2021/12/22 06:44:01;;;;;;;11.90;3.45;;;;;;;;;;7392354;19;20179;-75
2021/12/22 06:46:26;;;;;;;7.93;3.00;;;;;;;;;;7390432;19;20031;-75
2021/12/22 06:48:51;;;;;;;7.93;3.00;;;;;;;;;;7391868;19;20006;-75
2021/12/22 06:51:17;;;;;;;9.77;3.25;;;;;;;;;;7392341;19;19994;-75
2021/12/22 06:53:42;;;;;;;9.50;3.20;;;;;;;;;;7389737;19;20009;-75
2021/12/22 06:56:07;;;;;;;9.23;3.17;;;;;;;;;;7390399;19;19999;-75
2021/12/22 06:58:33;;;;;;;6.97;2.63;;;;;;;;;;7391914;19;20006;-75
2021/12/22 07:00:59;;;;;;;9.82;3.10;;;;;;;;;;7392049;19;19999;-75
2021/12/22 07:03:25;;;;;;;6.97;2.30;;;;;;;;;;7391706;19;20219;-75
2021/12/22 07:05:50;;;;;;;9.23;2.97;;;;;;;;;;7390673;19;20335;-75
2021/12/22 07:08:16;;;;;;;4.97;2.30;;;;;;;;;;7391004;19;20003;-75
2021/12/22 07:10:41;;;;;;;5.93;2.03;;;;;;;;;;7391615;19;20002;-74
2021/12/22 07:13:07;;;;;;;7.57;2.60;;;;;;;;;;7390057;19;20062;-75
2021/12/22 07:15:32;;;;;;;8.68;2.65;;;;;;;;;;7390636;19;20030;-75
2021/12/22 07:17:58;;;;;;;7.25;2.08;;;;;;;;;;7389756;19;20069;-75
2021/12/22 07:20:23;;;;;;;6.38;2.50;;;;;;;;;;7391893;19;20010;-74
2021/12/22 07:22:49;;;;;;;8.57;2.78;;;;;;;;;;7395354;19;20005;-75
2021/12/22 07:25:18;;;;;;;6.15;2.28;;;;;;;;;;7390232;19;20003;-75
2021/12/22 07:27:44;;;;;;;8.45;2.65;;;;;;;;;;7391223;19;20003;-75
2021/12/22 07:30:10;;;;;;;5.07;2.55;;;;;;;;;;7390743;19;20473;-74
2021/12/22 07:32:36;;;;;;;6.35;2.30;;;;;;;;;;7390732;19;20034;-75
2021/12/22 07:35:33;;;;;;;5.85;2.35;;;;;;;;;;7390240;19;20067;-75
2021/12/22 07:38:24;;;;;;;5.07;2.42;;;;;;;;;;7390735;19;20006;-75
2021/12/22 07:40:51;;;;;;;9.93;2.90;;;;;;;;;;7390589;19;19994;-75
2021/12/22 07:43:17;;;;;;;6.40;2.40;;;;;;;;;;7390438;19;20006;-75
2021/12/22 07:45:42;;;;;;;5.70;2.20;;;;;;;;;;7389411;19;20003;-75
2021/12/22 07:48:08;;;;;;;6.60;2.20;;;;;;;;;;7390273;19;20473;-75
2021/12/22 07:50:33;;;;;;;6.20;2.45;;;;;;;;;;7392407;19;20335;-75
2021/12/22 07:52:58;;;;;;;6.68;2.50;;;;;;;;;;7389472;19;19995;-75
2021/12/22 07:55:24;;;;;;;5.50;2.28;;;;;;;;;;7389335;19;20006;-75
2021/12/22 07:57:49;;;;;;;5.90;2.45;;;;;;;;;;7390683;19;19998;-75
2021/12/22 08:00:15;;;;;;;6.18;2.40;;;;;;;;;;7390301;19;19998;-75
2021/12/22 08:02:40;;;;;;;7.38;2.20;;;;;;;;;;7389852;19;20027;-75
2021/12/22 08:05:06;;;;;;;7.20;2.33;;;;;;;;;;7389346;19;20369;-75
2021/12/22 08:07:31;;;;;;;7.28;2.85;;;;;;;;;;7390479;19;20003;-75
2021/12/22 08:09:58;;;;;;;6.82;2.30;;;;;;;;;;7391835;19;20364;-75
2021/12/22 08:12:24;;;;;;;6.72;2.20;;;;;;;;;;7389085;19;20445;-75
2021/12/22 08:14:49;;;;;;;5.85;2.65;;;;;;;;;;7388815;19;19994;-75
2021/12/22 08:17:15;;;;;;;5.78;2.58;;;;;;;;;;7389516;19;20027;-75
2021/12/22 08:19:41;;;;;;;4.68;2.38;;;;;;;;;;7389512;19;19995;-75
2021/12/22 08:22:06;;;;;;;6.70;2.55;;;;;;;;;;7389884;19;20003;-74
2021/12/22 08:24:32;;;;;;;5.05;2.60;;;;;;;;;;7389191;19;20017;-75
2021/12/22 08:26:58;;;;;;;6.15;2.55;;;;;;;;;;7389564;19;20015;-75
2021/12/22 08:29:24;;;;;;;6.43;2.55;;;;;;;;;;7388999;19;20013;-75
2021/12/22 08:31:49;;;;;;;9.75;2.65;;;;;;;;;;7389733;19;19995;-75
2021/12/22 08:34:22;;;;;;;4.13;2.05;;;;;;;;;;7396526;19;19998;-75
2021/12/22 08:39:31;;;;;;;7.13;3.00;;;;;;;;;;7396513;19;20073;-75
2021/12/22 08:41:57;;;;;;;8.75;3.13;;;;;;;;;;7397030;19;19999;-75
2021/12/22 08:44:23;;;;;;;7.75;3.08;;;;;;;;;;7396109;19;19991;-75
2021/12/22 08:46:50;;;;;;;8.45;3.30;;;;;;;;;;7396659;19;20009;-75
2021/12/22 08:49:18;;;;;;;6.78;3.17;;;;;;;;;;7395939;19;20513;-75
2021/12/22 08:51:44;;;;;;;8.40;3.30;;;;;;;;;;7393974;19;20491;-75
2021/12/22 08:54:09;;;;;;;8.30;3.33;;;;;;;;;;7396275;19;19994;-75
2021/12/22 08:56:36;;;;;;;8.82;3.08;;;;;;;;;;7396111;19;19999;-75
2021/12/22 08:59:05;;;;;;;7.85;2.80;;;;;;;;;;7397553;19;20001;-75
2021/12/22 09:01:31;;;;;;;6.60;2.88;;;;;;;;;;7395916;19;20058;-75
2021/12/22 09:03:56;;;;;;;8.68;2.88;;;;;;;;;;7396088;19;20454;-75
2021/12/22 09:06:21;;;;;;;6.10;2.92;;;;;;;;;;7391637;19;20078;-75
2021/12/22 09:08:46;;;;;;;6.90;3.08;;;;;;;;;;7395379;19;20031;-75
2021/12/22 09:11:12;;;;;;;7.32;2.70;;;;;;;;;;7395640;19;20110;-75
2021/12/22 09:13:39;;;;;;;7.93;2.75;;;;;;;;;;7392783;19;20009;-75
2021/12/22 09:16:09;;;;;;;6.35;2.38;;;;;;;;;;7393268;19;20027;-75
2021/12/22 09:18:35;;;;;;;5.70;2.35;;;;;;;;;;7394913;19;20449;-75
2021/12/22 09:21:00;;;;;;;5.97;2.72;;;;;;;;;;7394991;19;19998;-75
2021/12/22 09:23:26;;;;;;;8.82;2.92;;;;;;;;;;7395430;19;20028;-75
2021/12/22 09:25:51;;;;;;;7.95;2.92;;;;;;;;;;7393165;19;20021;-75
2021/12/22 09:28:16;;;;;;;5.13;2.58;;;;;;;;;;7394701;19;20013;-75
2021/12/22 09:30:43;;;;;;;8.38;2.80;;;;;;;;;;7394922;19;20001;-75
2021/12/22 09:33:12;;;;;;;7.65;2.90;;;;;;;;;;7393450;19;20017;-75
2021/12/22 09:35:38;;;;;;;7.30;3.17;;;;;;;;;;7393287;19;20078;-75
2021/12/22 09:38:04;;;;;;;8.07;3.28;;;;;;;;;;7394714;19;20006;-75
2021/12/22 09:40:30;;;;;;;6.72;2.65;;;;;;;;;;7395196;19;19998;-75
2021/12/22 09:42:55;;;;;;;5.63;2.47;;;;;;;;;;7394591;19;20609;-75
2021/12/22 09:45:24;;;;;;;7.22;3.10;;;;;;;;;;7391625;19;20037;-75
2021/12/22 09:53:11;;;;;;;7.53;2.83;;;;;;;;;;7391950;19;20002;-75
2021/12/22 09:55:36;;;;;;;8.00;3.65;;;;;;;;;;7392621;19;20003;-75
2021/12/22 09:58:03;;;;;;;7.30;3.30;;;;;;;;;;7393807;19;20011;-75
2021/12/22 10:00:30;;;;;;;7.18;3.40;;;;;;;;;;7393770;19;20059;-75
2021/12/22 10:02:56;;;;;;;8.23;3.78;;;;;;;;;;7393823;19;20002;-75
2021/12/22 10:05:21;;;;;;;6.15;3.55;;;;;;;;;;7392827;19;20019;-75
2021/12/22 10:08:14;;;;;;;7.35;3.45;;;;;;;;;;7394339;19;20077;-75
2021/12/22 10:10:47;;;;;;;10.88;3.90;;;;;;;;;;7394160;19;19994;-75
2021/12/22 10:13:19;;;;;;;8.48;3.92;;;;;;;;;;7392075;19;20002;-75
2021/12/22 10:15:45;;;;;;;10.35;4.70;;;;;;;;;;7392538;19;20023;-75
2021/12/22 10:18:22;;;;;;;11.25;4.28;;;;;;;;;;7392949;19;20002;-75
2021/12/22 10:20:50;;;;;;;11.82;4.40;;;;;;;;;;7393412;19;19998;-75
2021/12/22 10:23:28;;;;;;;8.38;3.53;;;;;;;;;;7392855;19;19998;-75
2021/12/22 10:25:59;;;;;;;7.55;4.05;;;;;;;;;;7391541;19;20026;-75
2021/12/22 10:28:27;;;;;;;8.40;4.03;;;;;;;;;;7393158;19;19998;-75
2021/12/22 10:30:56;;;;;;;7.57;3.95;;;;;;;;;;7393389;19;20002;-75
2021/12/22 10:33:26;;;;;;;6.80;3.90;;;;;;;;;;7390888;19;19998;-75
2021/12/22 10:35:54;;;;;;;9.35;4.60;;;;;;;;;;7391074;19;20003;-75
2021/12/22 10:38:24;;;;;;;7.82;3.75;;;;;;;;;;7392763;19;20031;-75
2021/12/22 10:40:52;;;;;;;8.80;4.80;;;;;;;;;;7393515;19;19994;-75
2021/12/22 10:43:21;;;;;;;8.57;3.88;;;;;;;;;;7392489;19;20581;-75
2021/12/22 10:45:51;;;;;;;8.35;4.20;;;;;;;;;;7391075;19;20038;-75
2021/12/22 10:51:05;;;;;;;9.30;4.03;;;;;;;;;;7393574;19;20006;-77
2021/12/22 10:53:30;;;;;;;10.18;4.38;;;;;;;;;;7390110;19;19999;-77
2021/12/22 10:55:57;;;;;;;9.77;4.50;;;;;;;;;;7387878;19;20010;-77
2021/12/22 10:58:25;;;;;;;8.93;4.47;;;;;;;;;;7391760;19;19999;-77
2021/12/22 11:01:12;;;;;;;8.82;4.57;;;;;;;;;;7392373;19;20012;-77
2021/12/22 11:03:49;;;;;;;11.32;4.88;;;;;;;;;;7393606;19;20066;-77
2021/12/22 11:06:28;;;;;;;9.38;4.80;;;;;;;;;;7390672;19;20003;-77
2021/12/22 11:09:01;;;;;;;11.48;5.18;;;;;;;;;;7392354;19;20003;-77
2021/12/22 11:11:36;;;;;;;7.85;4.40;;;;;;;;;;7392551;19;20017;-75
2021/12/22 11:14:16;;;;;;;7.95;4.70;;;;;;;;;;7392071;19;19999;-77
2021/12/22 11:16:55;;;;;;;12.07;5.50;;;;;;;;;;7391666;19;20449;-77
2021/12/22 11:19:22;;;;;;;10.63;6.10;;;;;;;;;;7390910;19;20002;-77
2021/12/22 11:21:57;;;;;;;6.43;4.13;;;;;;;;;;7391883;19;20002;-77
2021/12/22 11:24:23;;;;;;;7.93;4.97;;;;;;;;;;7390804;19;19998;-77
2021/12/22 11:26:49;;;;;;;13.55;5.78;;;;;;;;;;7391347;19;19994;-75
2021/12/22 11:29:14;;;;;;;7.68;4.88;;;;;;;;;;7394504;19;20354;-77
2021/12/22 11:31:40;;;;;;;12.48;6.80;;;;;;;;;;7395190;19;20461;-77
2021/12/22 11:34:06;;;;;;;10.80;6.13;;;;;;;;;;7390994;19;19998;-77
2021/12/22 11:36:31;;;;;;;9.00;5.68;;;;;;;;;;7389502;19;20005;-75
2021/12/22 11:38:57;;;;;;;9.25;5.50;;;;;;;;;;7390395;19;20383;-77
2021/12/22 11:41:22;;;;;;;11.65;6.60;;;;;;;;;;7390926;19;19999;-75
2021/12/22 11:43:48;;;;;;;9.90;5.63;;;;;;;;;;7389391;19;20002;-77
2021/12/22 11:46:14;;;;;;;9.10;5.65;;;;;;;;;;7389365;19;20003;-77
2021/12/22 11:48:41;;;;;;;11.55;5.60;;;;;;;;;;7390116;19;20503;-77
2021/12/22 11:51:24;;;;;;;9.57;5.93;;;;;;;;;;7394458;19;20006;-77
2021/12/22 11:53:54;;;;;;;8.70;5.10;;;;;;;;;;7388409;19;20005;-75
2021/12/22 11:56:46;;;;;;;9.73;5.20;;;;;;;;;;7388946;19;20482;-75
2021/12/22 11:59:36;;;;;;;8.50;5.05;;;;;;;;;;7389175;19;20058;-75
2021/12/22 12:02:25;;;;;;;6.95;4.45;;;;;;;;;;7390066;19;19999;-75
2021/12/22 12:05:12;;;;;;;12.25;6.68;;;;;;;;;;7389609;19;20083;-77
2021/12/22 12:07:38;;;;;;;10.07;5.18;;;;;;;;;;7389085;19;20006;-77
2021/12/22 12:10:42;;;;;;;9.60;5.78;;;;;;;;;;7389247;19;19991;-77
2021/12/22 12:13:41;;;;;;;10.05;4.32;;;;;;;;;;7388752;19;19994;-77
2021/12/22 12:22:04;;;;;;;6.50;4.18;;;;;;;;;;7394372;19;20350;-77
2021/12/22 12:24:56;;;;;;;11.88;4.85;;;;;;;;;;7388796;19;20365;-77
2021/12/22 12:27:38;;;;;;;6.63;4.03;;;;;;;;;;7389448;19;20002;-75
2021/12/22 12:30:42;;;;;;;9.70;5.18;;;;;;;;;;7389035;19;20358;-75
2021/12/22 12:33:13;;;;;;;5.40;3.47;;;;;;;;;;7387363;19;20009;-76
2021/12/22 12:35:49;;;;;;;10.00;4.13;;;;;;;;;;7389066;19;20006;-77
2021/12/22 12:38:25;;;;;;;11.00;4.95;;;;;;;;;;7388649;19;20413;-77
2021/12/22 12:41:06;;;;;;;8.95;5.53;;;;;;;;;;7389244;19;20058;-77
2021/12/22 12:43:53;;;;;;;7.97;4.50;;;;;;;;;;7389064;19;20420;-77
2021/12/22 12:46:25;;;;;;;6.90;4.22;;;;;;;;;;7387612;19;20409;-76
2021/12/22 12:49:06;;;;;;;7.88;5.05;;;;;;;;;;7388453;19;20021;-76
2021/12/22 12:51:34;;;;;;;12.38;6.00;;;;;;;;;;7388872;19;20002;-77
2021/12/22 12:54:18;;;;;;;8.95;5.00;;;;;;;;;;7388411;19;20058;-77
2021/12/22 12:56:54;;;;;;;7.65;4.15;;;;;;;;;;7389100;19;19998;-77
2021/12/22 12:59:28;;;;;;;7.22;4.75;;;;;;;;;;7387878;19;20658;-77
2021/12/22 13:01:59;;;;;;;7.18;4.47;;;;;;;;;;7388773;19;19998;-77
2021/12/22 13:04:33;;;;;;;6.88;4.25;;;;;;;;;;7388350;19;20005;-77
2021/12/22 13:07:05;;;;;;;6.37;3.80;;;;;;;;;;7388701;19;20009;-76
2021/12/22 13:09:38;;;;;;;5.90;4.05;;;;;;;;;;7390700;19;20360;-76
2021/12/22 13:12:35;;;;;;;9.27;5.10;;;;;;;;;;7391030;19;20002;-76
2021/12/22 13:17:53;;;;;;;6.70;3.40;;;;;;;;;;7388873;19;20504;-76
2021/12/22 13:20:34;;;;;;;6.90;4.03;;;;;;;;;;7393071;19;20069;-76
2021/12/22 13:23:03;;;;;;;6.20;3.95;;;;;;;;;;7395356;19;19999;-76
2021/12/22 13:25:31;;;;;;;7.10;4.40;;;;;;;;;;7393777;19;20024;-76
2021/12/22 13:28:26;;;;;;;6.75;4.20;;;;;;;;;;7395205;19;20010;-76
2021/12/22 13:30:54;;;;;;;6.40;3.78;;;;;;;;;;7395728;19;19999;-76
2021/12/22 13:33:22;;;;;;;6.07;3.80;;;;;;;;;;7393033;19;20009;-76
2021/12/22 13:35:51;;;;;;;5.82;3.72;;;;;;;;;;7393520;19;20002;-76
2021/12/22 13:38:20;;;;;;;9.30;4.57;;;;;;;;;;7394301;19;20038;-76
2021/12/22 13:40:56;;;;;;;7.60;4.32;;;;;;;;;;7395089;19;20022;-76
2021/12/22 13:43:24;;;;;;;5.05;3.53;;;;;;;;;;7394300;19;20028;-76
2021/12/22 13:45:53;;;;;;;6.68;3.97;;;;;;;;;;7392884;19;20003;-77
2021/12/22 13:48:21;;;;;;;7.72;4.50;;;;;;;;;;7394400;19;20013;-76
2021/12/22 13:50:48;;;;;;;7.18;4.15;;;;;;;;;;7394648;19;20066;-76
2021/12/22 13:53:16;;;;;;;9.15;5.13;;;;;;;;;;7392144;19;20006;-76
2021/12/22 13:55:41;;;;;;;11.25;5.97;;;;;;;;;;7397162;19;20002;-76
2021/12/22 13:58:33;;;;;;;8.32;5.05;;;;;;;;;;7393921;19;20009;-76
2021/12/22 14:01:19;;;;;;;6.63;4.07;;;;;;;;;;7396375;19;20010;-77
2021/12/22 14:04:01;;;;;;;9.45;4.40;;;;;;;;;;7393762;19;20469;-76
2021/12/22 14:06:32;;;;;;;7.88;4.68;;;;;;;;;;7392081;19;20028;-76
2021/12/22 14:09:05;;;;;;;6.65;4.47;;;;;;;;;;7392980;19;20002;-76
2021/12/22 14:11:37;;;;;;;8.57;5.00;;;;;;;;;;7394025;19;19999;-76
2021/12/22 14:14:23;;;;;;;8.07;4.60;;;;;;;;;;7393678;19;20003;-76
2021/12/22 14:16:50;;;;;;;7.75;4.45;;;;;;;;;;7393681;19;19998;-76
2021/12/22 14:19:21;;;;;;;5.47;3.80;;;;;;;;;;7393140;19;20456;-76
2021/12/22 14:21:49;;;;;;;6.18;3.55;;;;;;;;;;7394215;19;19999;-76
2021/12/22 14:24:27;;;;;;;5.75;3.85;;;;;;;;;;7392731;19;20346;-76
2021/12/22 14:26:58;;;;;;;6.13;4.15;;;;;;;;;;7393622;19;19999;-76
2021/12/22 14:29:24;;;;;;;5.28;3.60;;;;;;;;;;7392584;19;20002;-76
2021/12/22 14:32:02;;;;;;;7.75;4.40;;;;;;;;;;7392592;19;19995;-76
2021/12/22 14:34:28;;;;;;;6.38;3.97;;;;;;;;;;7392476;19;20310;-76
2021/12/22 14:36:54;;;;;;;6.13;3.88;;;;;;;;;;7393067;19;20361;-76
2021/12/22 14:39:19;;;;;;;6.75;4.25;;;;;;;;;;7392035;19;19999;-77
2021/12/22 14:41:47;;;;;;;7.03;3.60;;;;;;;;;;7392608;19;20459;-76
2021/12/22 14:44:22;;;;;;;6.63;4.03;;;;;;;;;;7392398;19;20063;-76
2021/12/22 14:46:49;;;;;;;6.15;4.07;;;;;;;;;;7394004;19;20069;-76
2021/12/22 14:49:18;;;;;;;7.43;3.78;;;;;;;;;;7394129;19;20015;-76
2021/12/22 14:51:43;;;;;;;5.47;3.60;;;;;;;;;;7397245;19;20145;-76
2021/12/22 14:54:11;;;;;;;8.35;4.60;;;;;;;;;;7391776;19;20026;-77
2021/12/22 14:56:45;;;;;;;8.68;4.40;;;;;;;;;;7392412;19;20082;-76
2021/12/22 14:59:12;;;;;;;5.40;3.10;;;;;;;;;;7391959;19;20003;-76
2021/12/22 15:01:39;;;;;;;6.28;3.75;;;;;;;;;;7390465;19;20007;-76
2021/12/22 15:04:04;;;;;;;5.75;3.40;;;;;;;;;;7392117;19;20066;-76
2021/12/22 15:06:30;;;;;;;6.65;3.50;;;;;;;;;;7390335;19;20019;-76
2021/12/22 15:08:57;;;;;;;6.22;3.25;;;;;;;;;;7391056;19;20003;-76
2021/12/22 15:11:25;;;;;;;5.13;3.33;;;;;;;;;;7390292;19;20013;-76
2021/12/22 15:13:51;;;;;;;4.57;3.33;;;;;;;;;;7390118;19;19999;-76
2021/12/22 15:16:19;;;;;;;6.22;3.38;;;;;;;;;;7388205;19;19999;-76
2021/12/22 15:18:45;;;;;;;5.47;3.05;;;;;;;;;;7391107;19;20425;-76
2021/12/22 15:21:12;;;;;;;5.70;3.42;;;;;;;;;;7391490;19;20002;-76
2021/12/22 15:23:37;;;;;;;4.57;2.92;;;;;;;;;;7390865;19;20498;-76